This is the latest recevied weather packets stored in our database for station/object W7PLC. If no packets are shown the sender has not sent any weather packets the latest 10 day(s).
| Time | Temp. | Humidity | Pressure | Rain* | Wind** | Luminosity | Snow |
|---|---|---|---|---|---|---|---|
| 1777757170 | 25° C | 51% | 1013.2 hPa | 0 mm | - | 593 W/m² | - |
| 1777756868 | 25.56° C | 50% | 1013.2 hPa | 0 mm | - | 641 W/m² | - |
| 1777756563 | 25° C | 52% | 1013.3 hPa | 0 mm | - | 637 W/m² | - |
| 1777756260 | 23.89° C | 53% | 1013.4 hPa | 0 mm | - | 610 W/m² | - |
| 1777755957 | 24.44° C | 52% | 1013.5 hPa | 0 mm | - | 655 W/m² | - |
| 1777755654 | 24.44° C | 54% | 1013.8 hPa | 0 mm | - | 674 W/m² | - |
| 1777755350 | 24.44° C | 53% | 1013.5 hPa | 0 mm | - | 657 W/m² | - |
| 1777755048 | 25° C | 53% | 1013.6 hPa | 0 mm | - | 687 W/m² | - |
| 1777754744 | 23.89° C | 55% | 1013.6 hPa | 0 mm | - | 679 W/m² | - |
| 1777754442 | 24.44° C | 53% | 1013.4 hPa | 0 mm | - | 673 W/m² | - |
| 1777754139 | 23.89° C | 55% | 1013.5 hPa | 0 mm | - | 664 W/m² | - |
| 1777753836 | 23.33° C | 55% | 1013.8 hPa | 0 mm | - | 678 W/m² | - |
| 1777753532 | 22.78° C | 56% | 1013.7 hPa | 0 mm | - | 684 W/m² | - |
| 1777753231 | 23.33° C | 55% | 1013.9 hPa | 0 mm | - | 710 W/m² | - |
| 1777752926 | 23.33° C | 56% | 1013.9 hPa | 0 mm | - | 665 W/m² | - |
| 1777752623 | 22.78° C | 58% | 1014 hPa | 0 mm | - | 621 W/m² | - |
| 1777752319 | 22.22° C | 58% | 1014.2 hPa | 0 mm | - | 669 W/m² | - |
| 1777752017 | 21.11° C | 61% | 1014.2 hPa | 0 mm | - | 663 W/m² | - |
| 1777751714 | 21.67° C | 61% | 1014.2 hPa | 0 mm | - | 647 W/m² | - |
| 1777751410 | 21.67° C | 59% | 1014.3 hPa | 0 mm | - | 612 W/m² | - |
| 1777751107 | 20.56° C | 62% | 1014.3 hPa | 0 mm | - | 574 W/m² | - |
| 1777750803 | 21.67° C | 60% | 1014.2 hPa | 0 mm | - | 581 W/m² | - |
| 1777750500 | 20.56° C | 61% | 1014.5 hPa | 0 mm | - | 524 W/m² | - |
| 1777750196 | 20.56° C | 63% | 1014.2 hPa | 0 mm | - | 507 W/m² | - |
| 1777749892 | 21.11° C | 62% | 1014.3 hPa | 0 mm | - | 632 W/m² | - |
* Rain latest hour (hover to see other rain measurements)
** Current wind speed in m/s (hover to see current wind gust speed)